Nissin Maru — JL6697 — position and weather

sailwx.info

Track history (hours):
 
Tides and Currents Weather Stations Pressure Air Temp Water Temp Dewpoint Dewpoint Depression Visibility Wind Speed Wind Dir Waves Ship Positions

Nissin Maru

Last reported at 2018-Feb-19 19:36 UTC. Time now 2018-Feb-23 02:46 UTC.
Position N 35°01' E 140°11'.

Length 73 m; draft 4 m.

Type: Cargo ship. MMSI: 431501779.

Date/timePositionNaut miles runAvg speedWind from/ knotsBaromVisibWave heightAir tempDewpointWater temp
2018-Feb-19 19:36N 35°01' E 140°11'510.9
2018-Feb-19 19:10N 34°58' E 140°07'411.4
2018-Feb-19 18:51N 34°56' E 140°03'2311.5
2018-Feb-19 16:53N 34°50' E 139°36'810.7
2018-Feb-19 16:10N 34°50' E 139°27'1011.3
2018-Feb-19 15:17N 34°46' E 139°16'412.0
2018-Feb-19 14:59N 34°44' E 139°12'711.5
2018-Feb-19 14:21N 34°40' E 139°05'511.5
2018-Feb-19 13:54N 34°37' E 138°60'811.5
2018-Feb-19 13:12N 34°34' E 138°51'511.1
2018-Feb-19 12:44N 34°33' E 138°44'310.9
2018-Feb-19 12:29N 34°33' E 138°41'611.4
2018-Feb-19 11:59N 34°32' E 138°34'811.1
2018-Feb-19 11:14N 34°31' E 138°24'311.0
2018-Feb-19 11:00N 34°31' E 138°21'611.3
2018-Feb-19 10:30N 34°30' E 138°14'611.5
2018-Feb-19 09:58N 34°30' E 138°07'611.8
2018-Feb-19 09:29N 34°30' E 137°60'152 9.0
2018-Feb-18 16:42N 33°49' E 135°03'211.1
2018-Feb-18 16:30N 33°51' E 135°02'611.4
2018-Feb-18 16:01N 33°57' E 135°01'611.2
2018-Feb-18 15:30N 34°02' E 134°60'611.1
2018-Feb-18 15:00N 34°08' E 134°59'510.8
2018-Feb-18 14:30N 34°13' E 134°59'5 9.9
2018-Feb-18 14:00N 34°18' E 134°59'5 9.9
2018-Feb-18 13:30N 34°23' E 135°01'510.6
2018-Feb-18 13:00N 34°26' E 135°06'510.9
2018-Feb-18 12:30N 34°29' E 135°11'510.8
2018-Feb-18 12:00N 34°33' E 135°17'510.8
2018-Feb-18 11:30N 34°36' E 135°22'3 6.4
2018-Feb-18 11:00N 34°35' E 135°26'0 0.2
2018-Feb-18 10:29N 34°35' E 135°26'0 0.0
2018-Feb-18 10:00N 34°35' E 135°26'0 0.0
2018-Feb-18 09:30N 34°35' E 135°26'0 0.0
2018-Feb-18 09:00N 34°35' E 135°26'0 0.0
2018-Feb-18 08:30N 34°35' E 135°26'0 0.0
2018-Feb-18 08:00N 34°35' E 135°26'0 0.0
2018-Feb-18 07:30N 34°35' E 135°26'0 0.0
2018-Feb-18 07:00N 34°35' E 135°26'0 0.0
2018-Feb-18 06:30N 34°35' E 135°26'0 0.0
2018-Feb-18 06:00N 34°35' E 135°26'0 0.0
2018-Feb-18 05:30N 34°35' E 135°26'0 0.0
2018-Feb-18 05:00N 34°35' E 135°26'0 0.3
2018-Feb-18 04:30N 34°35' E 135°25'0 0.2
2018-Feb-18 04:00N 34°35' E 135°25'0 0.0
2018-Feb-18 03:30N 34°35' E 135°25'0 0.0
2018-Feb-18 03:00N 34°35' E 135°25'0 0.1
2018-Feb-18 02:29N 34°35' E 135°25'0 0.0
2018-Feb-18 02:00N 34°35' E 135°25'0 0.0
2018-Feb-18 01:29N 34°35' E 135°25'0 0.0
2018-Feb-18 01:00N 34°35' E 135°25'0 0.0
2018-Feb-18 00:30N 34°35' E 135°25'0 0.0
2018-Feb-17 23:59N 34°35' E 135°25'4 9.1
2018-Feb-17 23:30N 34°36' E 135°20'611.9
2018-Feb-17 23:01N 34°35' E 135°13'612.8
2018-Feb-17 22:30N 34°35' E 135°05'510.2
2018-Feb-17 22:01N 34°37' E 134°60'611.8
2018-Feb-17 21:31N 34°35' E 134°53'612.3
2018-Feb-17 21:00N 34°32' E 134°46'612.1
2018-Feb-17 20:30N 34°30' E 134°40'612.3
2018-Feb-17 20:00N 34°28' E 134°33'612.2
2018-Feb-17 19:30N 34°25' E 134°26'8612.3
2018-Feb-17 12:29N 34°02' E 132°46'613.2
2018-Feb-17 12:00N 33°56' E 132°41'4612.3
2018-Feb-17 08:15N 33°32' E 131°55'411.7
2018-Feb-17 07:53N 33°29' E 131°51'410.8
2018-Feb-17 07:30N 33°25' E 131°49'610.7
2018-Feb-17 06:58N 33°19' E 131°50'4 0.5
2018-Feb-16 22:23N 33°15' E 131°52'2 4.4
2018-Feb-16 21:58N 33°17' E 131°52'0 0.6
2018-Feb-16 21:30N 33°17' E 131°52'  
2018-Feb-14 11:03N 33°49' E 134°48'111.7
2018-Feb-14 10:59N 33°49' E 134°49'711.5
2018-Feb-14 10:21N 33°56' E 134°52'411.8
2018-Feb-14 10:00N 33°60' E 134°53'611.8
2018-Feb-14 09:30N 34°06' E 134°55'611.8
2018-Feb-14 09:00N 34°11' E 134°57'611.9
2018-Feb-14 08:30N 34°17' E 134°58'611.5
2018-Feb-14 08:00N 34°22' E 135°01'611.9
2018-Feb-14 07:30N 34°27' E 135°06'611.8
2018-Feb-14 07:00N 34°31' E 135°12'611.6
2018-Feb-14 06:30N 34°35' E 135°16'611.7
2018-Feb-14 06:00N 34°39' E 135°21'3 6.9
2018-Feb-14 05:30N 34°42' E 135°24'0 0.0
2018-Feb-14 05:00N 34°42' E 135°24'0 0.0
2018-Feb-14 04:30N 34°42' E 135°24'0 0.0
2018-Feb-14 04:00N 34°42' E 135°24'0 0.0
2018-Feb-14 03:30N 34°42' E 135°24'0 0.0
2018-Feb-14 03:00N 34°42' E 135°24'0 0.0
2018-Feb-14 02:30N 34°42' E 135°24'0 0.0
2018-Feb-14 02:00N 34°42' E 135°24'0 0.0
2018-Feb-14 01:30N 34°42' E 135°24'0 0.0
2018-Feb-14 01:00N 34°42' E 135°24'0 0.0
2018-Feb-14 00:30N 34°42' E 135°24'0 0.0
2018-Feb-14 00:00N 34°42' E 135°24'0 0.0
2018-Feb-13 23:30N 34°42' E 135°24'0 0.0
2018-Feb-13 23:00N 34°42' E 135°24'0 0.0
2018-Feb-13 22:30N 34°42' E 135°24'0 0.0
2018-Feb-13 22:00N 34°42' E 135°24'0 0.0
2018-Feb-13 21:30N 34°42' E 135°24'0 0.0
2018-Feb-13 21:00N 34°42' E 135°24'0 0.0
2018-Feb-13 20:30N 34°42' E 135°24'0 0.0
2018-Feb-13 20:00N 34°42' E 135°24'0 0.0
2018-Feb-13 19:30N 34°42' E 135°24'0 0.0
2018-Feb-13 19:00N 34°42' E 135°24'0 0.0
2018-Feb-13 18:30N 34°42' E 135°24'0 0.0
2018-Feb-13 18:00N 34°42' E 135°24'0 0.0
2018-Feb-13 17:30N 34°42' E 135°24'0 0.0
2018-Feb-13 17:00N 34°42' E 135°24'0 0.0
2018-Feb-13 16:30N 34°42' E 135°24'0 0.0
2018-Feb-13 16:00N 34°42' E 135°24'0 0.0
2018-Feb-13 15:30N 34°42' E 135°24'0 0.0
2018-Feb-13 15:00N 34°42' E 135°24'0 0.0
2018-Feb-13 14:30N 34°42' E 135°24'0 0.0
2018-Feb-13 14:00N 34°42' E 135°24'0 0.0
2018-Feb-13 13:30N 34°42' E 135°24'0 0.0
2018-Feb-13 13:00N 34°42' E 135°24'0 0.0
2018-Feb-13 12:30N 34°42' E 135°24'0 0.0
2018-Feb-13 12:00N 34°42' E 135°24'0 0.0
2018-Feb-13 11:30N 34°42' E 135°24'0 0.0
2018-Feb-13 11:00N 34°42' E 135°24'0 0.0
2018-Feb-13 10:30N 34°42' E 135°24'0 0.0
2018-Feb-13 10:00N 34°42' E 135°24'0 0.0
2018-Feb-13 09:30N 34°42' E 135°24'0 0.0
2018-Feb-13 09:00N 34°42' E 135°24'0 0.0
2018-Feb-13 08:30N 34°42' E 135°24'0 0.0
2018-Feb-13 08:00N 34°42' E 135°24'0 0.0
2018-Feb-13 07:30N 34°42' E 135°24'0 0.0
2018-Feb-13 07:00N 34°42' E 135°24'0 0.0
2018-Feb-13 06:30N 34°42' E 135°24'1 1.5
2018-Feb-13 06:00N 34°41' E 135°23'510.0
2018-Feb-13 05:29N 34°37' E 135°19'510.7
2018-Feb-13 05:00N 34°33' E 135°16'510.6
2018-Feb-13 04:30N 34°29' E 135°12'510.2
2018-Feb-13 04:00N 34°25' E 135°08'510.1
2018-Feb-13 03:30N 34°21' E 135°04'5 9.5
2018-Feb-13 03:00N 34°18' E 134°60'5 9.3
2018-Feb-13 02:30N 34°13' E 135°00'510.0
2018-Feb-13 02:00N 34°08' E 135°01'5 9.9
2018-Feb-13 01:30N 34°03' E 135°01'5 9.8
2018-Feb-13 01:00N 33°58' E 135°02'163 7.7
2018-Feb-12 03:51N 34°34' E 138°14'3 8.6
2018-Feb-12 03:30N 34°36' E 138°17'5 9.0
2018-Feb-12 02:55N 34°40' E 138°22'4 7.9
2018-Feb-12 02:24N 34°39' E 138°27'5 8.0
2018-Feb-12 01:49N 34°39' E 138°32'4 7.6
2018-Feb-12 01:18N 34°38' E 138°37'10 6.6
2018-Feb-11 23:51N 34°36' E 138°48'5 6.3
2018-Feb-11 23:02N 34°36' E 138°54'0 6.8
2018-Feb-11 22:59N 34°36' E 138°55'4 7.2
2018-Feb-11 22:27N 34°38' E 138°59'7 9.4
2018-Feb-11 21:42N 34°43' E 139°04'378 8.7
2018-Feb-10 02:14N 40°42' E 141°35'310.3
2018-Feb-10 01:57N 40°44' E 141°33'1010.3
2018-Feb-10 00:59N 40°53' E 141°27'  
Track history (hours):
 
Tides and Currents Weather Stations Pressure Air Temp Water Temp Dewpoint Dewpoint Depression Visibility Wind Speed Wind Dir Waves Ship Positions

Nissin Maru

Last reported at 2018-Feb-19 19:36 UTC. Time now 2018-Feb-23 02:46 UTC.
Position N 35°01' E 140°11'.

Length 73 m; draft 4 m.

Type: Cargo ship. MMSI: 431501779.

Date/timePositionNaut miles runAvg speedWind from/ knotsBaromVisibWave heightAir tempDewpointWater temp
2018-Feb-19 19:36N 35°01' E 140°11'510.9
2018-Feb-19 19:10N 34°58' E 140°07'411.4
2018-Feb-19 18:51N 34°56' E 140°03'2311.5
2018-Feb-19 16:53N 34°50' E 139°36'810.7
2018-Feb-19 16:10N 34°50' E 139°27'1011.3
2018-Feb-19 15:17N 34°46' E 139°16'412.0
2018-Feb-19 14:59N 34°44' E 139°12'711.5
2018-Feb-19 14:21N 34°40' E 139°05'511.5
2018-Feb-19 13:54N 34°37' E 138°60'811.5
2018-Feb-19 13:12N 34°34' E 138°51'511.1
2018-Feb-19 12:44N 34°33' E 138°44'310.9
2018-Feb-19 12:29N 34°33' E 138°41'611.4
2018-Feb-19 11:59N 34°32' E 138°34'811.1
2018-Feb-19 11:14N 34°31' E 138°24'311.0
2018-Feb-19 11:00N 34°31' E 138°21'611.3
2018-Feb-19 10:30N 34°30' E 138°14'611.5
2018-Feb-19 09:58N 34°30' E 138°07'611.8
2018-Feb-19 09:29N 34°30' E 137°60'152 9.0
2018-Feb-18 16:42N 33°49' E 135°03'211.1
2018-Feb-18 16:30N 33°51' E 135°02'611.4
2018-Feb-18 16:01N 33°57' E 135°01'611.2
2018-Feb-18 15:30N 34°02' E 134°60'611.1
2018-Feb-18 15:00N 34°08' E 134°59'510.8
2018-Feb-18 14:30N 34°13' E 134°59'5 9.9
2018-Feb-18 14:00N 34°18' E 134°59'5 9.9
2018-Feb-18 13:30N 34°23' E 135°01'510.6
2018-Feb-18 13:00N 34°26' E 135°06'510.9
2018-Feb-18 12:30N 34°29' E 135°11'510.8
2018-Feb-18 12:00N 34°33' E 135°17'510.8
2018-Feb-18 11:30N 34°36' E 135°22'3 6.4
2018-Feb-18 11:00N 34°35' E 135°26'0 0.2
2018-Feb-18 10:29N 34°35' E 135°26'0 0.0
2018-Feb-18 10:00N 34°35' E 135°26'0 0.0
2018-Feb-18 09:30N 34°35' E 135°26'0 0.0
2018-Feb-18 09:00N 34°35' E 135°26'0 0.0
2018-Feb-18 08:30N 34°35' E 135°26'0 0.0
2018-Feb-18 08:00N 34°35' E 135°26'0 0.0
2018-Feb-18 07:30N 34°35' E 135°26'0 0.0
2018-Feb-18 07:00N 34°35' E 135°26'0 0.0
2018-Feb-18 06:30N 34°35' E 135°26'0 0.0
2018-Feb-18 06:00N 34°35' E 135°26'0 0.0
2018-Feb-18 05:30N 34°35' E 135°26'0 0.0
2018-Feb-18 05:00N 34°35' E 135°26'0 0.3
2018-Feb-18 04:30N 34°35' E 135°25'0 0.2
2018-Feb-18 04:00N 34°35' E 135°25'0 0.0
2018-Feb-18 03:30N 34°35' E 135°25'0 0.0
2018-Feb-18 03:00N 34°35' E 135°25'0 0.1
2018-Feb-18 02:29N 34°35' E 135°25'0 0.0
2018-Feb-18 02:00N 34°35' E 135°25'0 0.0
2018-Feb-18 01:29N 34°35' E 135°25'0 0.0
2018-Feb-18 01:00N 34°35' E 135°25'0 0.0
2018-Feb-18 00:30N 34°35' E 135°25'0 0.0
2018-Feb-17 23:59N 34°35' E 135°25'4 9.1
2018-Feb-17 23:30N 34°36' E 135°20'611.9
2018-Feb-17 23:01N 34°35' E 135°13'612.8
2018-Feb-17 22:30N 34°35' E 135°05'510.2
2018-Feb-17 22:01N 34°37' E 134°60'611.8
2018-Feb-17 21:31N 34°35' E 134°53'612.3
2018-Feb-17 21:00N 34°32' E 134°46'612.1
2018-Feb-17 20:30N 34°30' E 134°40'612.3
2018-Feb-17 20:00N 34°28' E 134°33'612.2
2018-Feb-17 19:30N 34°25' E 134°26'8612.3
2018-Feb-17 12:29N 34°02' E 132°46'613.2
2018-Feb-17 12:00N 33°56' E 132°41'4612.3
2018-Feb-17 08:15N 33°32' E 131°55'411.7
2018-Feb-17 07:53N 33°29' E 131°51'410.8
2018-Feb-17 07:30N 33°25' E 131°49'610.7
2018-Feb-17 06:58N 33°19' E 131°50'4 0.5
2018-Feb-16 22:23N 33°15' E 131°52'2 4.4
2018-Feb-16 21:58N 33°17' E 131°52'0 0.6
2018-Feb-16 21:30N 33°17' E 131°52'  
2018-Feb-14 11:03N 33°49' E 134°48'111.7
2018-Feb-14 10:59N 33°49' E 134°49'711.5
2018-Feb-14 10:21N 33°56' E 134°52'411.8
2018-Feb-14 10:00N 33°60' E 134°53'611.8
2018-Feb-14 09:30N 34°06' E 134°55'611.8
2018-Feb-14 09:00N 34°11' E 134°57'611.9
2018-Feb-14 08:30N 34°17' E 134°58'611.5
2018-Feb-14 08:00N 34°22' E 135°01'611.9
2018-Feb-14 07:30N 34°27' E 135°06'611.8
2018-Feb-14 07:00N 34°31' E 135°12'611.6
2018-Feb-14 06:30N 34°35' E 135°16'611.7
2018-Feb-14 06:00N 34°39' E 135°21'3 6.9
2018-Feb-14 05:30N 34°42' E 135°24'0 0.0
2018-Feb-14 05:00N 34°42' E 135°24'0 0.0
2018-Feb-14 04:30N 34°42' E 135°24'0 0.0
2018-Feb-14 04:00N 34°42' E 135°24'0 0.0
2018-Feb-14 03:30N 34°42' E 135°24'0 0.0
2018-Feb-14 03:00N 34°42' E 135°24'0 0.0
2018-Feb-14 02:30N 34°42' E 135°24'0 0.0
2018-Feb-14 02:00N 34°42' E 135°24'0 0.0
2018-Feb-14 01:30N 34°42' E 135°24'0 0.0
2018-Feb-14 01:00N 34°42' E 135°24'0 0.0
2018-Feb-14 00:30N 34°42' E 135°24'0 0.0
2018-Feb-14 00:00N 34°42' E 135°24'0 0.0
2018-Feb-13 23:30N 34°42' E 135°24'0 0.0
2018-Feb-13 23:00N 34°42' E 135°24'0 0.0
2018-Feb-13 22:30N 34°42' E 135°24'0 0.0
2018-Feb-13 22:00N 34°42' E 135°24'0 0.0
2018-Feb-13 21:30N 34°42' E 135°24'0 0.0
2018-Feb-13 21:00N 34°42' E 135°24'0 0.0
2018-Feb-13 20:30N 34°42' E 135°24'0 0.0
2018-Feb-13 20:00N 34°42' E 135°24'0 0.0
2018-Feb-13 19:30N 34°42' E 135°24'0 0.0
2018-Feb-13 19:00N 34°42' E 135°24'0 0.0
2018-Feb-13 18:30N 34°42' E 135°24'0 0.0
2018-Feb-13 18:00N 34°42' E 135°24'0 0.0
2018-Feb-13 17:30N 34°42' E 135°24'0 0.0
2018-Feb-13 17:00N 34°42' E 135°24'0 0.0
2018-Feb-13 16:30N 34°42' E 135°24'0 0.0
2018-Feb-13 16:00N 34°42' E 135°24'0 0.0
2018-Feb-13 15:30N 34°42' E 135°24'0 0.0
2018-Feb-13 15:00N 34°42' E 135°24'0 0.0
2018-Feb-13 14:30N 34°42' E 135°24'0 0.0
2018-Feb-13 14:00N 34°42' E 135°24'0 0.0
2018-Feb-13 13:30N 34°42' E 135°24'0 0.0
2018-Feb-13 13:00N 34°42' E 135°24'0 0.0
2018-Feb-13 12:30N 34°42' E 135°24'0 0.0
2018-Feb-13 12:00N 34°42' E 135°24'0 0.0
2018-Feb-13 11:30N 34°42' E 135°24'0 0.0
2018-Feb-13 11:00N 34°42' E 135°24'0 0.0
2018-Feb-13 10:30N 34°42' E 135°24'0 0.0
2018-Feb-13 10:00N 34°42' E 135°24'0 0.0
2018-Feb-13 09:30N 34°42' E 135°24'0 0.0
2018-Feb-13 09:00N 34°42' E 135°24'0 0.0
2018-Feb-13 08:30N 34°42' E 135°24'0 0.0
2018-Feb-13 08:00N 34°42' E 135°24'0 0.0
2018-Feb-13 07:30N 34°42' E 135°24'0 0.0
2018-Feb-13 07:00N 34°42' E 135°24'0 0.0
2018-Feb-13 06:30N 34°42' E 135°24'1 1.5
2018-Feb-13 06:00N 34°41' E 135°23'510.0
2018-Feb-13 05:29N 34°37' E 135°19'510.7
2018-Feb-13 05:00N 34°33' E 135°16'510.6
2018-Feb-13 04:30N 34°29' E 135°12'510.2
2018-Feb-13 04:00N 34°25' E 135°08'510.1
2018-Feb-13 03:30N 34°21' E 135°04'5 9.5
2018-Feb-13 03:00N 34°18' E 134°60'5 9.3
2018-Feb-13 02:30N 34°13' E 135°00'510.0
2018-Feb-13 02:00N 34°08' E 135°01'5 9.9
2018-Feb-13 01:30N 34°03' E 135°01'5 9.8
2018-Feb-13 01:00N 33°58' E 135°02'163 7.7
2018-Feb-12 03:51N 34°34' E 138°14'3 8.6
2018-Feb-12 03:30N 34°36' E 138°17'5 9.0
2018-Feb-12 02:55N 34°40' E 138°22'4 7.9
2018-Feb-12 02:24N 34°39' E 138°27'5 8.0
2018-Feb-12 01:49N 34°39' E 138°32'4 7.6
2018-Feb-12 01:18N 34°38' E 138°37'10 6.6
2018-Feb-11 23:51N 34°36' E 138°48'5 6.3
2018-Feb-11 23:02N 34°36' E 138°54'0 6.8
2018-Feb-11 22:59N 34°36' E 138°55'4 7.2
2018-Feb-11 22:27N 34°38' E 138°59'7 9.4
2018-Feb-11 21:42N 34°43' E 139°04'378 8.7
2018-Feb-10 02:14N 40°42' E 141°35'310.3
2018-Feb-10 01:57N 40°44' E 141°33'1010.3
2018-Feb-10 00:59N 40°53' E 141°27'  

Dump ship's entire track history